Stornoway — WDC7908 — position and weather

sailwx.info

Track history (hours):
 
Tides and Currents Weather Stations Pressure Air Temp Water Temp Dewpoint Dewpoint Depression Visibility Wind Speed Wind Dir Waves Ship Positions

Stornoway

Owner: Matthews, William R, Bainbridge Island, WA. More information available from US FCC via Universal Licensing System and Coast Guard Vessel Documentation Center.

Last reported at 2018-Jul-17 21:44 UTC. Time now 2018-Jul-19 07:57 UTC.
Position N 49°44' W 124°23'.

Length 13 m.

Type: Pleasure craft. MMSI: 367078810.

Date/timePositionNaut miles runAvg speedWind from/ knotsBaromVisibWave heightAir tempDewpointWater temp
2018-Jul-17 21:44N 49°44' W 124°23'3 8.6
2018-Jul-17 21:20N 49°46' W 124°27'4 8.8
2018-Jul-17 20:52N 49°49' W 124°33'4 9.1
2018-Jul-17 20:27N 49°52' W 124°36'5 9.0
2018-Jul-17 19:56N 49°55' W 124°41'4 9.5
2018-Jul-17 19:30N 49°58' W 124°46'4 8.9
2018-Jul-17 19:00N 50°02' W 124°49'3 7.0
2018-Jul-17 18:30N 50°05' W 124°48'4 8.4
2018-Jul-17 18:00N 50°08' W 124°43'1 2.4
2018-Jul-17 17:27N 50°09' W 124°42'0 0.0
2018-Jul-17 17:00N 50°09' W 124°42'0 0.0
2018-Jul-17 16:30N 50°09' W 124°42'0 0.0
2018-Jul-17 16:00N 50°09' W 124°42'0 0.0
2018-Jul-17 15:30N 50°09' W 124°42'0 0.0
2018-Jul-17 15:00N 50°09' W 124°42'0 0.0
2018-Jul-17 14:30N 50°09' W 124°42'0 0.0
2018-Jul-17 14:00N 50°09' W 124°42'0 0.0
2018-Jul-17 13:30N 50°09' W 124°42'0 0.0
2018-Jul-17 13:00N 50°09' W 124°42'0 0.0
2018-Jul-17 12:30N 50°09' W 124°42'0 0.0
2018-Jul-17 12:00N 50°09' W 124°42'0 0.0
2018-Jul-17 11:30N 50°09' W 124°42'0 0.0
2018-Jul-17 11:00N 50°09' W 124°42'0 0.0
2018-Jul-17 10:30N 50°09' W 124°42'0 0.0
2018-Jul-17 10:00N 50°09' W 124°42'0 0.0
2018-Jul-17 09:30N 50°09' W 124°42'0 0.0
2018-Jul-17 09:00N 50°09' W 124°42'0 0.0
2018-Jul-17 08:30N 50°09' W 124°42'0 0.0
2018-Jul-17 08:00N 50°09' W 124°42'0 0.0
2018-Jul-17 07:30N 50°09' W 124°42'0 0.0
2018-Jul-17 07:00N 50°09' W 124°42'0 0.0
2018-Jul-17 06:30N 50°09' W 124°42'0 0.0
2018-Jul-17 06:00N 50°09' W 124°42'0 0.0
2018-Jul-17 05:30N 50°09' W 124°42'0 0.0
2018-Jul-17 05:00N 50°09' W 124°42'0 0.0
2018-Jul-17 04:30N 50°09' W 124°42'0 0.0
2018-Jul-17 04:00N 50°09' W 124°42'0 0.0
2018-Jul-17 03:30N 50°09' W 124°42'0 0.0
2018-Jul-17 03:00N 50°09' W 124°42'0 0.0
2018-Jul-17 02:30N 50°09' W 124°42'0 0.0
2018-Jul-17 02:00N 50°09' W 124°42'0 0.0
2018-Jul-17 01:30N 50°09' W 124°42'0 0.0
2018-Jul-17 01:00N 50°09' W 124°42'0 0.0
2018-Jul-17 00:27N 50°09' W 124°42'0 0.0
2018-Jul-16 23:30N 50°09' W 124°42'0 0.0
2018-Jul-16 23:00N 50°09' W 124°42'0 0.0
2018-Jul-16 22:30N 50°09' W 124°42'0 0.0
2018-Jul-16 22:00N 50°09' W 124°42'0 0.0
2018-Jul-16 21:30N 50°09' W 124°42'0 0.0
2018-Jul-16 21:00N 50°09' W 124°42'0 0.0
2018-Jul-16 20:30N 50°09' W 124°42'0 0.0
2018-Jul-16 20:00N 50°09' W 124°42'0 0.1
2018-Jul-16 19:30N 50°09' W 124°42'3 6.1
2018-Jul-16 19:00N 50°11' W 124°39'4 8.6
2018-Jul-16 18:30N 50°16' W 124°39'4 8.8
2018-Jul-16 18:00N 50°19' W 124°44'4 8.8
2018-Jul-16 17:30N 50°18' W 124°51'4 8.8
2018-Jul-16 17:00N 50°19' W 124°57'4 7.5
2018-Jul-16 16:30N 50°21' W 125°03'0 0.0
2018-Jul-16 16:00N 50°21' W 125°03'0 0.0
2018-Jul-16 15:30N 50°21' W 125°03'0 0.0
2018-Jul-16 15:00N 50°21' W 125°03'0 0.0
2018-Jul-16 14:30N 50°21' W 125°03'0 0.0
2018-Jul-16 13:57N 50°21' W 125°03'0 0.0
2018-Jul-16 13:30N 50°21' W 125°03'0 0.0
2018-Jul-16 13:00N 50°21' W 125°03'0 0.0
2018-Jul-16 12:30N 50°21' W 125°03'0 0.0
2018-Jul-16 12:00N 50°21' W 125°03'0 0.0
2018-Jul-16 11:24N 50°21' W 125°03'0 0.0
2018-Jul-16 11:00N 50°21' W 125°03'0 0.0
2018-Jul-16 10:30N 50°21' W 125°03'0 0.0
2018-Jul-16 10:00N 50°21' W 125°03'0 0.0
2018-Jul-16 09:27N 50°21' W 125°03'0 0.0
2018-Jul-16 08:57N 50°21' W 125°03'0 0.0
2018-Jul-16 08:30N 50°21' W 125°03'0 0.0
2018-Jul-16 08:00N 50°21' W 125°03'0 0.0
2018-Jul-16 07:30N 50°21' W 125°03'0 0.0
2018-Jul-16 06:57N 50°21' W 125°03'0 0.0
2018-Jul-16 06:30N 50°21' W 125°03'0 0.0
2018-Jul-16 05:51N 50°21' W 125°03'0 0.0
2018-Jul-16 05:30N 50°21' W 125°03'0 0.0
2018-Jul-16 05:00N 50°21' W 125°03'0 0.0
2018-Jul-16 04:27N 50°21' W 125°03'0 0.0
2018-Jul-16 03:57N 50°21' W 125°03'0 0.0
2018-Jul-16 03:30N 50°21' W 125°03'0 0.0
2018-Jul-16 03:00N 50°21' W 125°03'0 0.0
2018-Jul-16 02:27N 50°21' W 125°03'0 0.0
2018-Jul-16 02:00N 50°21' W 125°03'0 0.1
2018-Jul-16 01:30N 50°21' W 125°02'0 0.0
2018-Jul-16 01:00N 50°21' W 125°02'0 0.1
2018-Jul-16 00:30N 50°21' W 125°03'0 0.1
2018-Jul-15 23:57N 50°21' W 125°02'0 0.0
2018-Jul-15 23:21N 50°21' W 125°02'0 0.0
2018-Jul-15 23:00N 50°21' W 125°02'0 0.0
2018-Jul-15 22:30N 50°21' W 125°02'0 0.0
2018-Jul-15 22:00N 50°21' W 125°02'0 0.0
2018-Jul-15 21:30N 50°21' W 125°02'0 0.0
2018-Jul-15 21:00N 50°21' W 125°02'0 0.0
2018-Jul-15 20:30N 50°21' W 125°02'0 0.1
2018-Jul-15 20:00N 50°21' W 125°03'0 0.0
2018-Jul-15 19:27N 50°21' W 125°03'0 0.0
2018-Jul-15 18:57N 50°21' W 125°03'0 0.0
2018-Jul-15 18:18N 50°21' W 125°03'0 0.0
2018-Jul-15 18:00N 50°21' W 125°03'0 0.0
2018-Jul-15 17:30N 50°21' W 125°03'0 0.0
2018-Jul-15 17:00N 50°21' W 125°03'0 0.0
2018-Jul-15 16:30N 50°21' W 125°03'0 0.0
2018-Jul-15 16:00N 50°21' W 125°03'0 0.0
2018-Jul-15 15:30N 50°21' W 125°03'0 0.0
2018-Jul-15 15:00N 50°21' W 125°03'0 0.0
2018-Jul-15 14:15N 50°21' W 125°03'0 0.0
2018-Jul-15 14:00N 50°21' W 125°03'0 0.0
2018-Jul-15 13:30N 50°21' W 125°03'0 0.0
2018-Jul-15 12:57N 50°21' W 125°03'0 0.0
2018-Jul-15 12:24N 50°21' W 125°03'0 0.1
2018-Jul-15 12:00N 50°21' W 125°03'0 0.0
2018-Jul-15 11:30N 50°21' W 125°03'0 0.0
2018-Jul-15 10:57N 50°21' W 125°03'0 0.0
2018-Jul-15 10:18N 50°21' W 125°03'0 0.0
2018-Jul-15 10:00N 50°21' W 125°03'0 0.1
2018-Jul-15 09:30N 50°21' W 125°02'0 0.1
2018-Jul-15 09:00N 50°21' W 125°03'0 0.0
2018-Jul-15 08:30N 50°21' W 125°03'0 0.0
2018-Jul-15 08:00N 50°21' W 125°03'0 0.0
2018-Jul-15 07:21N 50°21' W 125°03'0 0.0
2018-Jul-15 07:00N 50°21' W 125°03'0 0.0
2018-Jul-15 06:24N 50°21' W 125°03'0 0.0
2018-Jul-15 05:54N 50°21' W 125°03'0 0.0
2018-Jul-15 05:24N 50°21' W 125°03'0 0.0
2018-Jul-15 04:54N 50°21' W 125°03'0 0.0
2018-Jul-15 04:27N 50°21' W 125°03'0 0.1
2018-Jul-15 04:00N 50°21' W 125°02'0 0.1
2018-Jul-15 03:30N 50°21' W 125°03'0 0.0
2018-Jul-15 03:00N 50°21' W 125°03'0 0.1
2018-Jul-15 02:30N 50°21' W 125°02'0 0.0
2018-Jul-15 02:00N 50°21' W 125°02'0 0.0
2018-Jul-15 01:30N 50°21' W 125°02'0 0.1
2018-Jul-15 01:00N 50°21' W 125°03'0 0.0
2018-Jul-15 00:27N 50°21' W 125°03'0 0.0
2018-Jul-14 23:45N 50°21' W 125°03'0 0.0
2018-Jul-14 23:24N 50°21' W 125°03'0 0.0
2018-Jul-14 22:57N 50°21' W 125°03'0 0.0
2018-Jul-14 22:21N 50°21' W 125°03'0 0.0
2018-Jul-14 21:51N 50°21' W 125°03'0 0.0
2018-Jul-14 21:30N 50°21' W 125°03'0 0.0
2018-Jul-14 21:00N 50°21' W 125°03'0 0.0
2018-Jul-14 20:27N 50°21' W 125°03'0 0.0
2018-Jul-14 20:00N 50°21' W 125°03'0 0.0
2018-Jul-14 19:30N 50°21' W 125°03'0 0.0
2018-Jul-14 18:57N 50°21' W 125°03'0 0.0
2018-Jul-14 18:30N 50°21' W 125°03'0 0.0
2018-Jul-14 17:48N 50°21' W 125°03'0 0.0
2018-Jul-14 17:27N 50°21' W 125°03'0 0.0
2018-Jul-14 17:00N 50°21' W 125°03'0 0.0
2018-Jul-14 16:21N 50°21' W 125°03'0 0.0
2018-Jul-14 16:00N 50°21' W 125°03'0 0.0
2018-Jul-14 15:21N 50°21' W 125°03'0 0.0
2018-Jul-14 14:54N 50°21' W 125°03'0 0.0
2018-Jul-14 14:30N 50°21' W 125°03'0 0.0
2018-Jul-14 13:27N 50°21' W 125°03'0 0.0
2018-Jul-14 12:48N 50°21' W 125°03'0 0.1
2018-Jul-14 12:27N 50°21' W 125°03'0 0.0
2018-Jul-14 11:57N 50°21' W 125°03'0 0.1
2018-Jul-14 11:30N 50°21' W 125°02'0 0.1
2018-Jul-14 11:00N 50°21' W 125°03'0 0.1
2018-Jul-14 10:27N 50°21' W 125°02'0 0.1
2018-Jul-14 09:57N 50°21' W 125°03'0 0.1
2018-Jul-14 09:30N 50°21' W 125°02'0 0.0
2018-Jul-14 08:57N 50°21' W 125°02'0 0.0
2018-Jul-14 08:30N 50°21' W 125°02'0 0.0
2018-Jul-14 07:57N 50°21' W 125°02'0 0.0
2018-Jul-14 07:30N 50°21' W 125°02'0 0.0
2018-Jul-14 06:58N 50°21' W 125°02'0 0.0
2018-Jul-14 06:27N 50°21' W 125°02'0 0.0
2018-Jul-14 05:55N 50°21' W 125°02'0 0.0
2018-Jul-14 05:18N 50°21' W 125°02'0 0.0
2018-Jul-14 04:58N 50°21' W 125°02'0 0.0
2018-Jul-14 04:28N 50°21' W 125°02'0 0.0
2018-Jul-14 03:58N 50°21' W 125°02'0 0.0
2018-Jul-14 03:28N 50°21' W 125°02'0 0.0
2018-Jul-14 02:58N 50°21' W 125°02'0 0.0
2018-Jul-14 02:25N 50°21' W 125°02'0 0.0
2018-Jul-14 01:53N 50°21' W 125°02'2 4.5
2018-Jul-14 01:30N 50°19' W 125°02'4 7.9
2018-Jul-14 01:00N 50°21' W 125°08'4 8.2
2018-Jul-14 00:30N 50°24' W 125°12'  
2018-Jul-08 07:03N 50°54' W 127°18'0 0.0
2018-Jul-08 06:51N 50°54' W 127°18'0 0.0
2018-Jul-08 06:27N 50°54' W 127°18'0 0.0
2018-Jul-08 02:33N 50°54' W 127°18'0 0.1
2018-Jul-08 02:06N 50°54' W 127°18'1 5.7
2018-Jul-08 01:58N 50°54' W 127°16'3 7.2
2018-Jul-08 01:30N 50°54' W 127°22'4 8.9
2018-Jul-08 01:00N 50°57' W 127°28'4 8.7
2018-Jul-08 00:30N 50°59' W 127°33'4 8.9
2018-Jul-08 00:00N 51°03' W 127°38'5 8.5
2018-Jul-07 23:28N 51°06' W 127°42'  
Track history (hours):
 
Tides and Currents Weather Stations Pressure Air Temp Water Temp Dewpoint Dewpoint Depression Visibility Wind Speed Wind Dir Waves Ship Positions

Stornoway

Owner: Matthews, William R, Bainbridge Island, WA. More information available from US FCC via Universal Licensing System and Coast Guard Vessel Documentation Center.

Last reported at 2018-Jul-17 21:44 UTC. Time now 2018-Jul-19 07:57 UTC.
Position N 49°44' W 124°23'.

Length 13 m.

Type: Pleasure craft. MMSI: 367078810.

Date/timePositionNaut miles runAvg speedWind from/ knotsBaromVisibWave heightAir tempDewpointWater temp
2018-Jul-17 21:44N 49°44' W 124°23'3 8.6
2018-Jul-17 21:20N 49°46' W 124°27'4 8.8
2018-Jul-17 20:52N 49°49' W 124°33'4 9.1
2018-Jul-17 20:27N 49°52' W 124°36'5 9.0
2018-Jul-17 19:56N 49°55' W 124°41'4 9.5
2018-Jul-17 19:30N 49°58' W 124°46'4 8.9
2018-Jul-17 19:00N 50°02' W 124°49'3 7.0
2018-Jul-17 18:30N 50°05' W 124°48'4 8.4
2018-Jul-17 18:00N 50°08' W 124°43'1 2.4
2018-Jul-17 17:27N 50°09' W 124°42'0 0.0
2018-Jul-17 17:00N 50°09' W 124°42'0 0.0
2018-Jul-17 16:30N 50°09' W 124°42'0 0.0
2018-Jul-17 16:00N 50°09' W 124°42'0 0.0
2018-Jul-17 15:30N 50°09' W 124°42'0 0.0
2018-Jul-17 15:00N 50°09' W 124°42'0 0.0
2018-Jul-17 14:30N 50°09' W 124°42'0 0.0
2018-Jul-17 14:00N 50°09' W 124°42'0 0.0
2018-Jul-17 13:30N 50°09' W 124°42'0 0.0
2018-Jul-17 13:00N 50°09' W 124°42'0 0.0
2018-Jul-17 12:30N 50°09' W 124°42'0 0.0
2018-Jul-17 12:00N 50°09' W 124°42'0 0.0
2018-Jul-17 11:30N 50°09' W 124°42'0 0.0
2018-Jul-17 11:00N 50°09' W 124°42'0 0.0
2018-Jul-17 10:30N 50°09' W 124°42'0 0.0
2018-Jul-17 10:00N 50°09' W 124°42'0 0.0
2018-Jul-17 09:30N 50°09' W 124°42'0 0.0
2018-Jul-17 09:00N 50°09' W 124°42'0 0.0
2018-Jul-17 08:30N 50°09' W 124°42'0 0.0
2018-Jul-17 08:00N 50°09' W 124°42'0 0.0
2018-Jul-17 07:30N 50°09' W 124°42'0 0.0
2018-Jul-17 07:00N 50°09' W 124°42'0 0.0
2018-Jul-17 06:30N 50°09' W 124°42'0 0.0
2018-Jul-17 06:00N 50°09' W 124°42'0 0.0
2018-Jul-17 05:30N 50°09' W 124°42'0 0.0
2018-Jul-17 05:00N 50°09' W 124°42'0 0.0
2018-Jul-17 04:30N 50°09' W 124°42'0 0.0
2018-Jul-17 04:00N 50°09' W 124°42'0 0.0
2018-Jul-17 03:30N 50°09' W 124°42'0 0.0
2018-Jul-17 03:00N 50°09' W 124°42'0 0.0
2018-Jul-17 02:30N 50°09' W 124°42'0 0.0
2018-Jul-17 02:00N 50°09' W 124°42'0 0.0
2018-Jul-17 01:30N 50°09' W 124°42'0 0.0
2018-Jul-17 01:00N 50°09' W 124°42'0 0.0
2018-Jul-17 00:27N 50°09' W 124°42'0 0.0
2018-Jul-16 23:30N 50°09' W 124°42'0 0.0
2018-Jul-16 23:00N 50°09' W 124°42'0 0.0
2018-Jul-16 22:30N 50°09' W 124°42'0 0.0
2018-Jul-16 22:00N 50°09' W 124°42'0 0.0
2018-Jul-16 21:30N 50°09' W 124°42'0 0.0
2018-Jul-16 21:00N 50°09' W 124°42'0 0.0
2018-Jul-16 20:30N 50°09' W 124°42'0 0.0
2018-Jul-16 20:00N 50°09' W 124°42'0 0.1
2018-Jul-16 19:30N 50°09' W 124°42'3 6.1
2018-Jul-16 19:00N 50°11' W 124°39'4 8.6
2018-Jul-16 18:30N 50°16' W 124°39'4 8.8
2018-Jul-16 18:00N 50°19' W 124°44'4 8.8
2018-Jul-16 17:30N 50°18' W 124°51'4 8.8
2018-Jul-16 17:00N 50°19' W 124°57'4 7.5
2018-Jul-16 16:30N 50°21' W 125°03'0 0.0
2018-Jul-16 16:00N 50°21' W 125°03'0 0.0
2018-Jul-16 15:30N 50°21' W 125°03'0 0.0
2018-Jul-16 15:00N 50°21' W 125°03'0 0.0
2018-Jul-16 14:30N 50°21' W 125°03'0 0.0
2018-Jul-16 13:57N 50°21' W 125°03'0 0.0
2018-Jul-16 13:30N 50°21' W 125°03'0 0.0
2018-Jul-16 13:00N 50°21' W 125°03'0 0.0
2018-Jul-16 12:30N 50°21' W 125°03'0 0.0
2018-Jul-16 12:00N 50°21' W 125°03'0 0.0
2018-Jul-16 11:24N 50°21' W 125°03'0 0.0
2018-Jul-16 11:00N 50°21' W 125°03'0 0.0
2018-Jul-16 10:30N 50°21' W 125°03'0 0.0
2018-Jul-16 10:00N 50°21' W 125°03'0 0.0
2018-Jul-16 09:27N 50°21' W 125°03'0 0.0
2018-Jul-16 08:57N 50°21' W 125°03'0 0.0
2018-Jul-16 08:30N 50°21' W 125°03'0 0.0
2018-Jul-16 08:00N 50°21' W 125°03'0 0.0
2018-Jul-16 07:30N 50°21' W 125°03'0 0.0
2018-Jul-16 06:57N 50°21' W 125°03'0 0.0
2018-Jul-16 06:30N 50°21' W 125°03'0 0.0
2018-Jul-16 05:51N 50°21' W 125°03'0 0.0
2018-Jul-16 05:30N 50°21' W 125°03'0 0.0
2018-Jul-16 05:00N 50°21' W 125°03'0 0.0
2018-Jul-16 04:27N 50°21' W 125°03'0 0.0
2018-Jul-16 03:57N 50°21' W 125°03'0 0.0
2018-Jul-16 03:30N 50°21' W 125°03'0 0.0
2018-Jul-16 03:00N 50°21' W 125°03'0 0.0
2018-Jul-16 02:27N 50°21' W 125°03'0 0.0
2018-Jul-16 02:00N 50°21' W 125°03'0 0.1
2018-Jul-16 01:30N 50°21' W 125°02'0 0.0
2018-Jul-16 01:00N 50°21' W 125°02'0 0.1
2018-Jul-16 00:30N 50°21' W 125°03'0 0.1
2018-Jul-15 23:57N 50°21' W 125°02'0 0.0
2018-Jul-15 23:21N 50°21' W 125°02'0 0.0
2018-Jul-15 23:00N 50°21' W 125°02'0 0.0
2018-Jul-15 22:30N 50°21' W 125°02'0 0.0
2018-Jul-15 22:00N 50°21' W 125°02'0 0.0
2018-Jul-15 21:30N 50°21' W 125°02'0 0.0
2018-Jul-15 21:00N 50°21' W 125°02'0 0.0
2018-Jul-15 20:30N 50°21' W 125°02'0 0.1
2018-Jul-15 20:00N 50°21' W 125°03'0 0.0
2018-Jul-15 19:27N 50°21' W 125°03'0 0.0
2018-Jul-15 18:57N 50°21' W 125°03'0 0.0
2018-Jul-15 18:18N 50°21' W 125°03'0 0.0
2018-Jul-15 18:00N 50°21' W 125°03'0 0.0
2018-Jul-15 17:30N 50°21' W 125°03'0 0.0
2018-Jul-15 17:00N 50°21' W 125°03'0 0.0
2018-Jul-15 16:30N 50°21' W 125°03'0 0.0
2018-Jul-15 16:00N 50°21' W 125°03'0 0.0
2018-Jul-15 15:30N 50°21' W 125°03'0 0.0
2018-Jul-15 15:00N 50°21' W 125°03'0 0.0
2018-Jul-15 14:15N 50°21' W 125°03'0 0.0
2018-Jul-15 14:00N 50°21' W 125°03'0 0.0
2018-Jul-15 13:30N 50°21' W 125°03'0 0.0
2018-Jul-15 12:57N 50°21' W 125°03'0 0.0
2018-Jul-15 12:24N 50°21' W 125°03'0 0.1
2018-Jul-15 12:00N 50°21' W 125°03'0 0.0
2018-Jul-15 11:30N 50°21' W 125°03'0 0.0
2018-Jul-15 10:57N 50°21' W 125°03'0 0.0
2018-Jul-15 10:18N 50°21' W 125°03'0 0.0
2018-Jul-15 10:00N 50°21' W 125°03'0 0.1
2018-Jul-15 09:30N 50°21' W 125°02'0 0.1
2018-Jul-15 09:00N 50°21' W 125°03'0 0.0
2018-Jul-15 08:30N 50°21' W 125°03'0 0.0
2018-Jul-15 08:00N 50°21' W 125°03'0 0.0
2018-Jul-15 07:21N 50°21' W 125°03'0 0.0
2018-Jul-15 07:00N 50°21' W 125°03'0 0.0
2018-Jul-15 06:24N 50°21' W 125°03'0 0.0
2018-Jul-15 05:54N 50°21' W 125°03'0 0.0
2018-Jul-15 05:24N 50°21' W 125°03'0 0.0
2018-Jul-15 04:54N 50°21' W 125°03'0 0.0
2018-Jul-15 04:27N 50°21' W 125°03'0 0.1
2018-Jul-15 04:00N 50°21' W 125°02'0 0.1
2018-Jul-15 03:30N 50°21' W 125°03'0 0.0
2018-Jul-15 03:00N 50°21' W 125°03'0 0.1
2018-Jul-15 02:30N 50°21' W 125°02'0 0.0
2018-Jul-15 02:00N 50°21' W 125°02'0 0.0
2018-Jul-15 01:30N 50°21' W 125°02'0 0.1
2018-Jul-15 01:00N 50°21' W 125°03'0 0.0
2018-Jul-15 00:27N 50°21' W 125°03'0 0.0
2018-Jul-14 23:45N 50°21' W 125°03'0 0.0
2018-Jul-14 23:24N 50°21' W 125°03'0 0.0
2018-Jul-14 22:57N 50°21' W 125°03'0 0.0
2018-Jul-14 22:21N 50°21' W 125°03'0 0.0
2018-Jul-14 21:51N 50°21' W 125°03'0 0.0
2018-Jul-14 21:30N 50°21' W 125°03'0 0.0
2018-Jul-14 21:00N 50°21' W 125°03'0 0.0
2018-Jul-14 20:27N 50°21' W 125°03'0 0.0
2018-Jul-14 20:00N 50°21' W 125°03'0 0.0
2018-Jul-14 19:30N 50°21' W 125°03'0 0.0
2018-Jul-14 18:57N 50°21' W 125°03'0 0.0
2018-Jul-14 18:30N 50°21' W 125°03'0 0.0
2018-Jul-14 17:48N 50°21' W 125°03'0 0.0
2018-Jul-14 17:27N 50°21' W 125°03'0 0.0
2018-Jul-14 17:00N 50°21' W 125°03'0 0.0
2018-Jul-14 16:21N 50°21' W 125°03'0 0.0
2018-Jul-14 16:00N 50°21' W 125°03'0 0.0
2018-Jul-14 15:21N 50°21' W 125°03'0 0.0
2018-Jul-14 14:54N 50°21' W 125°03'0 0.0
2018-Jul-14 14:30N 50°21' W 125°03'0 0.0
2018-Jul-14 13:27N 50°21' W 125°03'0 0.0
2018-Jul-14 12:48N 50°21' W 125°03'0 0.1
2018-Jul-14 12:27N 50°21' W 125°03'0 0.0
2018-Jul-14 11:57N 50°21' W 125°03'0 0.1
2018-Jul-14 11:30N 50°21' W 125°02'0 0.1
2018-Jul-14 11:00N 50°21' W 125°03'0 0.1
2018-Jul-14 10:27N 50°21' W 125°02'0 0.1
2018-Jul-14 09:57N 50°21' W 125°03'0 0.1
2018-Jul-14 09:30N 50°21' W 125°02'0 0.0
2018-Jul-14 08:57N 50°21' W 125°02'0 0.0
2018-Jul-14 08:30N 50°21' W 125°02'0 0.0
2018-Jul-14 07:57N 50°21' W 125°02'0 0.0
2018-Jul-14 07:30N 50°21' W 125°02'0 0.0
2018-Jul-14 06:58N 50°21' W 125°02'0 0.0
2018-Jul-14 06:27N 50°21' W 125°02'0 0.0
2018-Jul-14 05:55N 50°21' W 125°02'0 0.0
2018-Jul-14 05:18N 50°21' W 125°02'0 0.0
2018-Jul-14 04:58N 50°21' W 125°02'0 0.0
2018-Jul-14 04:28N 50°21' W 125°02'0 0.0
2018-Jul-14 03:58N 50°21' W 125°02'0 0.0
2018-Jul-14 03:28N 50°21' W 125°02'0 0.0
2018-Jul-14 02:58N 50°21' W 125°02'0 0.0
2018-Jul-14 02:25N 50°21' W 125°02'0 0.0
2018-Jul-14 01:53N 50°21' W 125°02'2 4.5
2018-Jul-14 01:30N 50°19' W 125°02'4 7.9
2018-Jul-14 01:00N 50°21' W 125°08'4 8.2
2018-Jul-14 00:30N 50°24' W 125°12'  
2018-Jul-08 07:03N 50°54' W 127°18'0 0.0
2018-Jul-08 06:51N 50°54' W 127°18'0 0.0
2018-Jul-08 06:27N 50°54' W 127°18'0 0.0
2018-Jul-08 02:33N 50°54' W 127°18'0 0.1
2018-Jul-08 02:06N 50°54' W 127°18'1 5.7
2018-Jul-08 01:58N 50°54' W 127°16'3 7.2
2018-Jul-08 01:30N 50°54' W 127°22'4 8.9
2018-Jul-08 01:00N 50°57' W 127°28'4 8.7
2018-Jul-08 00:30N 50°59' W 127°33'4 8.9
2018-Jul-08 00:00N 51°03' W 127°38'5 8.5
2018-Jul-07 23:28N 51°06' W 127°42'  

Dump ship's entire track history